Time;durP1;ratioP1;P1;durP2;ratioP2;P2;SDS_P1;SDS_P2;PMS_P1;PMS_P2;Temp;Humidity;BMP_temperature;BMP_pressure;BME280_temperature;BME280_humidity;BME280_pressure;Samples;Min_cycle;Max_cycle;Signal;HPM_P1;HPM_P2
2022/07/05 00:01:09;;;;;;;2.90;2.50;;;;;;;12.94;83.60;102177.88;5016175;28;20461;-46
2022/07/05 00:03:36;;;;;;;2.88;2.67;;;;;;;12.86;84.33;102181.13;5016113;28;20062;-45
2022/07/05 00:06:02;;;;;;;3.75;2.70;;;;;;;12.80;84.51;102182.81;5016623;28;20050;-46
2022/07/05 00:08:29;;;;;;;2.65;2.45;;;;;;;12.85;84.35;102179.63;5016896;28;20058;-46
2022/07/05 00:10:55;;;;;;;3.28;2.78;;;;;;;12.82;83.97;102180.47;5016581;28;20054;-46
2022/07/05 00:13:22;;;;;;;2.55;2.42;;;;;;;12.81;83.67;102178.97;5016092;28;20418;-45
2022/07/05 00:15:48;;;;;;;2.90;2.70;;;;;;;12.79;84.17;102190.09;5016391;28;20046;-45
2022/07/05 00:18:15;;;;;;;2.95;2.65;;;;;;;12.78;83.56;102180.59;5015989;28;20141;-46
2022/07/05 00:20:41;;;;;;;3.28;2.67;;;;;;;12.76;83.86;102184.84;5016397;28;20054;-46
2022/07/05 00:23:08;;;;;;;3.20;2.70;;;;;;;12.71;83.82;102188.03;5016079;28;20590;-46
2022/07/05 00:25:34;;;;;;;4.10;2.70;;;;;;;12.68;83.73;102186.94;5015117;28;20102;-45
2022/07/05 00:28:00;;;;;;;3.00;2.80;;;;;;;12.64;84.20;102192.34;5016242;28;20054;-45
2022/07/05 00:30:27;;;;;;;2.55;2.35;;;;;;;12.61;84.28;102193.19;5015150;28;20057;-46
2022/07/05 00:32:53;;;;;;;3.33;2.72;;;;;;;12.60;84.21;102183.69;5016166;28;20487;-47
2022/07/05 00:35:20;;;;;;;2.75;2.55;;;;;;;12.57;84.47;102181.84;5015951;28;20053;-49
2022/07/05 00:37:46;;;;;;;2.97;2.63;;;;;;;12.55;84.59;102183.44;5016255;28;20054;-46
2022/07/05 00:40:13;;;;;;;2.72;2.53;;;;;;;12.45;84.83;102177.16;5015314;28;20061;-46
2022/07/05 00:42:39;;;;;;;3.53;3.08;;;;;;;12.39;85.35;102178.09;5016081;28;20062;-46
2022/07/05 00:45:07;;;;;;;3.20;2.92;;;;;;;12.39;85.35;102178.84;5015438;28;20103;-46
2022/07/05 00:47:34;;;;;;;3.20;3.00;;;;;;;12.34;85.46;102177.44;5015829;28;20137;-45
2022/07/05 00:50:00;;;;;;;3.10;2.90;;;;;;;12.36;85.75;102179.69;5015926;28;20505;-51
2022/07/05 00:52:27;;;;;;;3.20;3.00;;;;;;;12.31;85.82;102182.84;5015997;28;20078;-46
2022/07/05 00:54:53;;;;;;;3.33;3.03;;;;;;;12.23;85.74;102178.81;5015147;28;20106;-46
2022/07/05 00:57:21;;;;;;;8.23;3.10;;;;;;;12.20;85.84;102180.41;5015380;28;20481;-45
2022/07/05 00:59:50;;;;;;;2.80;2.60;;;;;;;12.21;86.06;102178.50;5015408;28;20403;-46
2022/07/05 01:02:16;;;;;;;3.05;2.85;;;;;;;12.21;86.16;102176.56;5015825;28;20053;-48
2022/07/05 01:04:47;;;;;;;3.55;2.95;;;;;;;12.22;85.82;102174.66;5015459;28;20429;-46
2022/07/05 01:07:13;;;;;;;3.80;3.38;;;;;;;12.22;85.78;102178.06;5015809;28;20057;-47
2022/07/05 01:09:40;;;;;;;5.78;3.72;;;;;;;12.21;86.06;102175.81;5015749;28;20054;-46
2022/07/05 01:12:08;;;;;;;3.72;3.40;;;;;;;12.16;86.33;102173.63;5014226;28;20042;-45
2022/07/05 01:14:34;;;;;;;3.67;3.45;;;;;;;12.11;86.38;102174.88;5015351;28;20061;-46
2022/07/05 01:17:01;;;;;;;3.70;3.40;;;;;;;12.02;87.11;102167.44;5015724;28;20054;-45
2022/07/05 01:19:28;;;;;;;4.50;3.30;;;;;;;12.06;87.63;102175.38;5013734;28;20573;-45
2022/07/05 01:21:54;;;;;;;3.67;3.47;;;;;;;12.08;87.63;102167.69;5015687;28;20059;-48
2022/07/05 01:24:21;;;;;;;3.78;3.42;;;;;;;12.08;87.73;102169.63;5014748;28;20054;-44
2022/07/05 01:26:49;;;;;;;3.97;3.47;;;;;;;12.12;87.40;102173.72;5015123;28;20058;-45
2022/07/05 01:29:16;;;;;;;3.50;3.30;;;;;;;12.11;87.95;102176.78;5015773;28;20050;-45
2022/07/05 01:31:43;;;;;;;4.68;3.28;;;;;;;12.15;87.99;102174.81;5015345;28;20054;-46
2022/07/05 01:34:09;;;;;;;4.13;3.40;;;;;;;12.20;88.17;102177.75;5014718;28;20050;-44
2022/07/05 01:36:37;;;;;;;4.03;3.72;;;;;;;12.25;87.77;102174.56;5015446;28;20063;-45
2022/07/05 01:39:05;;;;;;;4.13;3.42;;;;;;;12.30;87.72;102174.09;5014016;28;20062;-45
2022/07/05 01:41:32;;;;;;;3.47;3.17;;;;;;;12.30;88.01;102168.75;5014584;28;20515;-46
2022/07/05 01:43:59;;;;;;;4.28;3.40;;;;;;;12.29;87.93;102166.47;5014709;28;20062;-46
2022/07/05 01:46:30;;;;;;;3.40;3.20;;;;;;;12.30;87.70;102178.66;5014422;28;20046;-44
2022/07/05 01:48:58;;;;;;;3.92;3.53;;;;;;;12.31;87.83;102180.94;5015230;28;20117;-45
2022/07/05 01:51:29;;;;;;;3.60;3.30;;;;;;;12.30;87.54;102176.00;5014771;28;20050;-45
2022/07/05 01:53:56;;;;;;;3.60;3.40;;;;;;;12.27;87.43;102171.50;5014729;28;20112;-47
2022/07/05 01:56:22;;;;;;;3.78;3.40;;;;;;;12.26;87.24;102181.41;5013850;28;20057;-46
2022/07/05 01:58:51;;;;;;;3.80;3.50;;;;;;;12.22;87.72;102182.66;5015153;28;20063;-44
2022/07/05 02:01:35;;;;;;;3.50;3.30;;;;;;;12.20;87.59;102182.31;5014791;28;20050;-45
2022/07/05 02:04:08;;;;;;;4.88;3.28;;;;;;;12.22;87.70;102180.00;5014038;28;20054;-47
2022/07/05 02:06:35;;;;;;;5.28;3.28;;;;;;;12.23;88.17;102182.25;5014984;28;20046;-47
2022/07/05 02:09:04;;;;;;;6.35;3.35;;;;;;;12.22;88.81;102186.09;5014529;28;20054;-47
2022/07/05 02:11:30;;;;;;;3.90;3.47;;;;;;;12.31;89.01;102188.94;5013998;28;20064;-46
2022/07/05 02:13:59;;;;;;;3.70;3.22;;;;;;;12.38;89.22;102193.38;5015042;28;20491;-47
2022/07/05 02:16:27;;;;;;;3.58;3.38;;;;;;;12.41;89.50;102179.16;5014494;28;20061;-46
2022/07/05 02:18:54;;;;;;;3.72;3.47;;;;;;;12.42;89.42;102182.56;5014132;28;20061;-47
2022/07/05 02:21:21;;;;;;;3.63;3.33;;;;;;;12.45;89.33;102179.81;5014392;28;20085;-49
2022/07/05 02:23:48;;;;;;;3.20;3.00;;;;;;;12.48;89.61;102180.91;5014195;28;20065;-45
2022/07/05 02:26:14;;;;;;;3.28;3.13;;;;;;;12.51;89.14;102172.81;5013436;28;20058;-49
2022/07/05 02:28:41;;;;;;;3.70;3.50;;;;;;;12.57;89.09;102179.16;5014685;28;20058;-46
2022/07/05 02:31:08;;;;;;;3.85;3.55;;;;;;;12.59;89.21;102176.06;5014012;28;20046;-46
2022/07/05 02:33:34;;;;;;;4.60;3.33;;;;;;;12.64;88.85;102179.00;5014186;28;20546;-47
2022/07/05 02:36:09;;;;;;;3.97;3.15;;;;;;;12.66;89.31;102171.31;5014408;28;20084;-45
2022/07/05 02:38:36;;;;;;;3.47;3.20;;;;;;;12.66;89.05;102170.56;5012626;28;20055;-46
2022/07/05 02:41:07;;;;;;;3.75;3.53;;;;;;;12.63;89.00;102171.41;5013495;28;20069;-44
2022/07/05 02:43:34;;;;;;;7.47;3.60;;;;;;;12.64;89.16;102175.59;5014286;28;20141;-47
2022/07/05 02:46:02;;;;;;;8.10;3.65;;;;;;;12.67;88.73;102175.50;5014311;28;20140;-46
2022/07/05 02:48:28;;;;;;;3.70;3.40;;;;;;;12.70;88.85;102176.56;5014184;28;20116;-47
2022/07/05 02:50:55;;;;;;;3.90;3.60;;;;;;;12.73;88.31;102172.31;5012953;28;20066;-46
2022/07/05 02:53:23;;;;;;;4.00;3.58;;;;;;;12.73;88.92;102175.75;5014346;28;20061;-49
2022/07/05 02:55:50;;;;;;;4.47;3.35;;;;;;;12.73;88.50;102183.00;5014224;28;20054;-47
2022/07/05 02:58:19;;;;;;;3.70;3.40;;;;;;;12.67;88.44;102183.50;5012863;28;20054;-49
2022/07/05 03:00:47;;;;;;;4.53;3.47;;;;;;;12.62;88.73;102185.94;5013801;28;20065;-45
2022/07/05 03:03:14;;;;;;;4.60;3.55;;;;;;;12.52;88.28;102186.94;5013951;28;20055;-45
2022/07/05 03:05:41;;;;;;;3.80;3.50;;;;;;;12.44;88.94;102189.00;5014153;28;20467;-43
2022/07/05 03:08:07;;;;;;;3.75;3.45;;;;;;;12.42;89.05;102191.34;5014012;28;20051;-47
2022/07/05 03:10:34;;;;;;;6.97;3.60;;;;;;;12.43;89.35;102192.09;5012252;28;20055;-45
2022/07/05 03:13:00;;;;;;;4.15;3.75;;;;;;;12.39;89.04;102192.19;5014141;28;20521;-47
2022/07/05 03:15:27;;;;;;;4.00;3.70;;;;;;;12.35;89.13;102186.94;5012789;28;20073;-44
2022/07/05 03:17:53;;;;;;;5.55;3.75;;;;;;;12.32;89.49;102187.78;5012757;28;20065;-47
2022/07/05 03:20:20;;;;;;;4.07;3.78;;;;;;;12.31;89.56;102198.88;5012676;28;20050;-45
2022/07/05 03:22:46;;;;;;;5.00;4.20;;;;;;;12.32;89.88;102193.09;5014044;28;20051;-44
2022/07/05 03:25:12;;;;;;;4.88;4.40;;;;;;;12.35;89.53;102202.22;5012263;28;20050;-44
2022/07/05 03:27:39;;;;;;;4.40;4.05;;;;;;;12.37;89.94;102199.88;5012834;28;20059;-44
2022/07/05 03:30:06;;;;;;;4.82;4.43;;;;;;;12.37;89.85;102204.47;5013733;28;20046;-45
2022/07/05 03:32:32;;;;;;;6.18;5.00;;;;;;;12.38;90.47;102205.97;5011271;28;20482;-44
2022/07/05 03:34:58;;;;;;;5.32;4.93;;;;;;;12.43;90.19;102208.13;5013251;28;20054;-44
2022/07/05 03:37:25;;;;;;;5.40;5.00;;;;;;;12.44;90.33;102207.69;5012667;28;20050;-46
2022/07/05 03:39:51;;;;;;;5.32;4.82;;;;;;;12.49;90.15;102206.47;5012155;28;20057;-45
2022/07/05 03:42:18;;;;;;;7.57;4.85;;;;;;;12.52;90.02;102201.03;5012781;28;20050;-47
2022/07/05 03:44:44;;;;;;;6.70;4.85;;;;;;;12.55;90.17;102210.88;5012481;28;20471;-44
2022/07/05 03:47:10;;;;;;;5.43;4.93;;;;;;;12.58;90.57;102204.72;5012839;28;20102;-44
2022/07/05 03:49:37;;;;;;;4.60;4.38;;;;;;;12.64;91.34;102200.38;5012506;28;20050;-46
2022/07/05 03:52:03;;;;;;;6.65;5.38;;;;;;;12.67;91.30;102204.88;5013250;28;20054;-45
2022/07/05 03:54:30;;;;;;;5.38;4.90;;;;;;;12.73;90.70;102209.72;5011856;28;20050;-46
2022/07/05 03:56:56;;;;;;;6.82;5.20;;;;;;;12.79;90.31;102203.47;5010336;28;20054;-44
2022/07/05 03:59:22;;;;;;;9.30;5.47;;;;;;;12.85;90.11;102214.38;5013422;28;20050;-46
2022/07/05 04:01:49;;;;;;;6.43;5.10;;;;;;;12.88;90.40;102208.19;5013622;28;20062;-45
2022/07/05 04:04:15;;;;;;;7.72;5.32;;;;;;;12.91;90.06;102207.34;5013182;28;20522;-47
2022/07/05 04:06:42;;;;;;;5.57;5.07;;;;;;;12.93;89.91;102213.78;5011707;28;20113;-46
2022/07/05 04:09:08;;;;;;;6.32;5.85;;;;;;;12.98;90.17;102212.53;5013951;28;20490;-46
2022/07/05 04:11:34;;;;;;;6.00;5.50;;;;;;;13.02;90.14;102215.88;5016398;28;20050;-46
2022/07/05 04:14:01;;;;;;;6.03;5.55;;;;;;;13.07;90.45;102212.69;5016693;28;20491;-45
2022/07/05 04:16:27;;;;;;;10.50;5.93;;;;;;;13.12;89.89;102219.44;5015913;28;20478;-47
2022/07/05 04:18:54;;;;;;;5.88;5.35;;;;;;;13.19;89.98;102219.31;5014302;28;20054;-46
2022/07/05 04:21:20;;;;;;;5.50;5.10;;;;;;;13.22;90.68;102224.53;5016486;28;20054;-47
2022/07/05 04:23:46;;;;;;;6.63;5.93;;;;;;;13.25;90.10;102215.66;5016257;28;20101;-45
2022/07/05 04:26:13;;;;;;;6.18;5.53;;;;;;;13.30;90.24;102217.09;5015857;28;20643;-46
2022/07/05 04:28:39;;;;;;;6.57;5.90;;;;;;;13.34;90.62;102220.41;5016253;28;20053;-46
2022/07/05 04:31:06;;;;;;;6.53;5.93;;;;;;;13.38;90.76;102221.06;5015902;28;20050;-46
2022/07/05 04:33:32;;;;;;;6.25;5.75;;;;;;;13.40;90.51;102220.66;5016510;28;20055;-45
2022/07/05 04:35:58;;;;;;;6.50;5.60;;;;;;;13.46;89.91;102218.97;5016103;28;20525;-44
2022/07/05 04:38:25;;;;;;;5.93;5.22;;;;;;;13.53;89.50;102218.78;5015033;28;20071;-47
2022/07/05 04:40:51;;;;;;;5.47;5.03;;;;;;;13.60;90.04;102215.88;5015110;28;20055;-44
2022/07/05 04:43:18;;;;;;;5.68;5.28;;;;;;;13.69;89.41;102216.03;5015918;28;20463;-50
2022/07/05 04:45:44;;;;;;;6.15;5.55;;;;;;;13.80;89.54;102221.09;5015885;28;20058;-43
2022/07/05 04:48:10;;;;;;;5.78;5.28;;;;;;;13.98;88.86;102224.75;5016270;28;20051;-46
2022/07/05 04:50:37;;;;;;;5.60;5.10;;;;;;;14.19;88.08;102220.69;5016016;28;20482;-47
2022/07/05 04:53:04;;;;;;;6.32;5.45;;;;;;;14.34;86.96;102223.69;5015640;28;20057;-46
2022/07/05 04:55:31;;;;;;;5.20;4.70;;;;;;;14.42;87.58;102222.31;5015933;28;20065;-45
2022/07/05 04:57:58;;;;;;;5.07;4.60;;;;;;;14.45;87.66;102218.78;5016039;28;20490;-45
2022/07/05 05:00:24;;;;;;;8.60;5.55;;;;;;;14.46;86.22;102222.19;5015470;28;20050;-49
2022/07/05 05:02:50;;;;;;;5.53;5.13;;;;;;;14.51;86.79;102225.09;5013621;28;20093;-47
2022/07/05 05:05:17;;;;;;;5.82;5.13;;;;;;;14.54;86.84;102229.59;5013429;28;20058;-45
2022/07/05 05:07:44;;;;;;;6.00;5.38;;;;;;;14.56;85.36;102221.88;5013964;28;20058;-45
2022/07/05 05:10:11;;;;;;;6.15;5.00;;;;;;;14.55;85.19;102230.34;5013541;28;20050;-44
2022/07/05 05:12:37;;;;;;;5.45;5.05;;;;;;;14.45;85.88;102228.75;5015649;28;20073;-46
2022/07/05 05:15:08;;;;;;;5.55;5.03;;;;;;;14.37;85.66;102227.44;5015632;28;20439;-45
2022/07/05 05:17:39;;;;;;;6.07;5.43;;;;;;;14.31;85.29;102227.97;5015937;28;20062;-46
2022/07/05 05:20:16;;;;;;;7.20;6.57;;;;;;;14.33;85.13;102225.63;5014453;28;20051;-46
2022/07/05 05:22:44;;;;;;;7.97;6.57;;;;;;;14.38;84.86;102215.56;5015794;28;20065;-46
2022/07/05 05:25:12;;;;;;;7.93;6.85;;;;;;;14.48;84.70;102222.53;5015387;28;20506;-49
2022/07/05 05:27:43;;;;;;;9.57;7.13;;;;;;;14.67;84.42;102224.22;5014997;28;20062;-49
2022/07/05 05:30:16;;;;;;;7.43;6.78;;;;;;;14.90;84.22;102231.13;5015076;28;20051;-48
2022/07/05 05:32:42;;;;;;;8.43;7.22;;;;;;;15.19;82.84;102230.94;5015368;28;20082;-48
2022/07/05 05:35:09;;;;;;;9.00;6.85;;;;;;;15.52;82.03;102237.44;5015278;28;20434;-46
2022/07/05 05:38:05;;;;;;;9.80;7.25;;;;;;;17.00;77.28;102242.94;5015315;28;20054;-45
2022/07/05 05:40:33;;;;;;;7.28;6.38;;;;;;;18.47;70.29;102246.03;5019423;28;20050;-47
2022/07/05 05:43:00;;;;;;;10.85;7.00;;;;;;;18.96;67.22;102243.66;5013798;28;20884;-47
2022/07/05 05:45:26;;;;;;;7.03;6.18;;;;;;;23.04;56.06;102247.41;5013011;28;20106;-46
2022/07/05 05:47:55;;;;;;;8.15;6.13;;;;;;;26.00;46.51;102262.66;5013051;28;20058;-48
2022/07/05 05:50:28;;;;;;;6.35;5.78;;;;;;;27.46;42.77;102257.53;5010950;28;20062;-48
2022/07/05 05:52:55;;;;;;;8.70;6.20;;;;;;;28.55;38.72;102256.53;5011861;28;20069;-46
2022/07/05 05:55:22;;;;;;;6.75;6.03;;;;;;;28.94;37.45;102252.22;5011544;28;20074;-51
2022/07/05 05:57:48;;;;;;;5.68;5.18;;;;;;;28.74;38.44;102259.84;5012204;28;20046;-49
2022/07/05 06:00:16;;;;;;;6.15;5.70;;;;;;;29.77;36.87;102263.91;5011600;28;20053;-49
2022/07/05 06:02:44;;;;;;;5.70;5.20;;;;;;;30.31;34.71;102266.97;5011214;28;20050;-45
2022/07/05 06:05:12;;;;;;;5.80;5.35;;;;;;;31.12;33.55;102266.28;5012873;28;20058;-49
2022/07/05 06:07:53;;;;;;;8.07;4.85;;;;;;;31.71;33.48;102268.84;5014695;28;20482;-48
2022/07/05 06:10:24;;;;;;;4.93;4.53;;;;;;;29.36;36.58;102267.41;5014859;28;20054;-46
2022/07/05 06:12:53;;;;;;;7.20;4.90;;;;;;;30.59;35.26;102272.38;5014999;28;20054;-47
2022/07/05 06:15:20;;;;;;;5.10;4.63;;;;;;;31.05;33.55;102269.75;5013979;28;20059;-49
2022/07/05 06:17:47;;;;;;;7.43;4.40;;;;;;;31.70;32.87;102272.88;5015024;28;20058;-47
2022/07/05 06:20:16;;;;;;;4.22;3.65;;;;;;;32.72;31.70;102274.19;5013941;28;20050;-47
2022/07/05 06:22:43;;;;;;;4.63;4.22;;;;;;;32.58;31.32;102278.47;5014853;28;20451;-47
2022/07/05 06:25:09;;;;;;;4.53;3.85;;;;;;;32.49;31.87;102288.06;5014650;28;20500;-46
2022/07/05 06:27:53;;;;;;;4.35;3.88;;;;;;;32.40;32.18;102289.41;5014570;28;20047;-46
2022/07/05 06:30:21;;;;;;;4.88;3.97;;;;;;;32.67;31.53;102292.41;5014706;28;20054;-47
2022/07/05 06:32:49;;;;;;;4.47;4.07;;;;;;;32.45;31.54;102290.47;5013806;28;20057;-48
2022/07/05 06:35:16;;;;;;;4.35;3.95;;;;;;;32.90;30.38;102294.31;5007544;28;20057;-46
2022/07/05 06:37:49;;;;;;;6.53;3.60;;;;;;;33.48;31.40;102292.97;5013972;28;20062;-45
2022/07/05 06:40:26;;;;;;;6.78;3.35;;;;;;;33.03;31.28;102299.56;5013878;28;20058;-48
2022/07/05 06:42:55;;;;;;;4.55;3.35;;;;;;;29.70;36.06;102296.75;5013757;28;20114;-46
2022/07/05 06:45:22;;;;;;;3.50;2.70;;;;;;;27.42;40.08;102302.84;5013451;28;20517;-47
2022/07/05 06:47:59;;;;;;;5.13;2.80;;;;;;;26.37;40.82;102298.28;5013859;28;20058;-47
2022/07/05 06:50:31;;;;;;;5.28;2.88;;;;;;;25.08;43.75;102298.56;5014314;28;20054;-48
2022/07/05 06:52:57;;;;;;;4.25;2.67;;;;;;;24.24;46.92;102298.09;5012471;28;20061;-48
2022/07/05 06:55:27;;;;;;;2.95;1.90;;;;;;;23.24;47.47;102293.34;5014036;28;20089;-46
2022/07/05 06:57:58;;;;;;;3.97;2.30;;;;;;;22.54;48.94;102294.81;5011638;28;20141;-47
2022/07/05 07:00:41;;;;;;;2.40;2.20;;;;;;;21.86;51.89;102309.16;5013683;28;20054;-48
2022/07/05 07:03:28;;;;;;;2.35;1.90;;;;;;;21.70;53.81;102303.59;5013699;28;20070;-46
2022/07/05 07:06:15;;;;;;;2.67;1.88;;;;;;;21.52;52.64;102301.97;5011770;28;20061;-46
2022/07/05 07:11:26;;;;;;;1.70;1.60;;;;;;;21.43;56.89;102297.44;5013636;28;20466;-46
2022/07/05 07:13:53;;;;;;;6.75;2.03;;;;;;;21.45;54.65;102300.41;5014033;28;20051;-46
2022/07/05 07:16:19;;;;;;;4.20;1.80;;;;;;;21.36;54.02;102303.28;5013925;28;20100;-46
2022/07/05 07:18:46;;;;;;;2.25;1.77;;;;;;;21.21;53.96;102302.63;5013344;28;20511;-46
2022/07/05 07:21:32;;;;;;;5.25;1.88;;;;;;;21.34;52.86;102300.28;5012159;28;20057;-50
2022/07/05 07:23:58;;;;;;;2.22;2.00;;;;;;;21.18;54.16;102296.19;5012006;28;20051;-48
2022/07/05 07:26:25;;;;;;;2.55;2.00;;;;;;;21.11;55.22;102293.13;5007710;28;20055;-46
2022/07/05 07:28:51;;;;;;;2.08;1.90;;;;;;;21.35;56.30;102301.03;5012180;28;20057;-46
2022/07/05 07:31:18;;;;;;;5.10;2.33;;;;;;;21.89;54.49;102302.03;5011048;28;20050;-44
2022/07/05 07:33:44;;;;;;;3.40;2.50;;;;;;;21.63;53.83;102302.78;5011694;28;20105;-45
2022/07/05 07:36:12;;;;;;;2.63;2.40;;;;;;;21.29;53.50;102306.41;5012365;28;20047;-48
2022/07/05 07:38:41;;;;;;;6.20;2.53;;;;;;;21.32;53.46;102310.13;5011970;28;20359;-46
2022/07/05 07:41:07;;;;;;;3.17;2.58;;;;;;;21.19;53.09;102310.47;5011576;28;20050;-48
2022/07/05 07:43:34;;;;;;;3.17;2.45;;;;;;;21.02;54.87;102315.69;5011247;28;20395;-47
2022/07/05 07:46:00;;;;;;;6.03;2.40;;;;;;;21.21;54.28;102305.31;5015390;28;20485;-46
2022/07/05 07:48:28;;;;;;;3.53;2.63;;;;;;;21.49;52.64;102313.75;5014808;28;20155;-43
2022/07/05 07:50:55;;;;;;;3.38;2.70;;;;;;;21.75;54.00;102316.44;5014848;28;20105;-45
2022/07/05 07:53:21;;;;;;;9.90;2.40;;;;;;;21.92;55.53;102317.34;5016049;28;20043;-46
2022/07/05 07:55:48;;;;;;;7.18;2.90;;;;;;;21.67;51.97;102299.88;5014816;28;20064;-44
2022/07/05 07:58:15;;;;;;;2.38;2.17;;;;;;;22.03;55.88;102316.69;5014439;28;20557;-46
2022/07/05 08:00:41;;;;;;;7.40;2.92;;;;;;;23.22;53.42;102314.84;5015184;28;20062;-46
2022/07/05 08:03:08;;;;;;;3.50;2.67;;;;;;;23.74;48.51;102320.63;5015415;28;20074;-48
2022/07/05 08:05:34;;;;;;;3.15;2.85;;;;;;;23.26;50.13;102318.06;5014469;28;20064;-45
2022/07/05 08:08:01;;;;;;;4.47;2.80;;;;;;;23.26;50.11;102320.78;5014317;28;20046;-49
2022/07/05 08:10:28;;;;;;;4.93;3.00;;;;;;;23.44;53.19;102314.91;5015704;28;20065;-48
2022/07/05 08:12:54;;;;;;;5.45;3.42;;;;;;;23.64;52.27;102315.91;5014857;28;20443;-48
2022/07/05 08:15:20;;;;;;;6.45;3.65;;;;;;;23.50;48.04;102318.38;5014613;28;20346;-46
2022/07/05 08:21:30;;;;;;;9.10;3.45;;;;;;;23.43;53.32;102328.97;5016013;28;20050;-50
2022/07/05 08:23:20;;;;;;;4.80;2.85;;;;;;;23.62;47.37;102324.56;5032330;28;20503;-47
2022/07/05 08:25:46;;;;;;;3.33;2.17;;;;;;;23.55;47.40;102325.06;5014910;28;20062;-47
2022/07/05 08:28:12;;;;;;;6.30;3.00;;;;;;;23.29;50.70;102325.97;5015152;28;20057;-48
2022/07/05 08:30:39;;;;;;;3.40;2.60;;;;;;;22.70;50.59;102331.44;5015534;28;20524;-48
2022/07/05 08:33:05;;;;;;;2.92;2.30;;;;;;;22.32;52.59;102331.94;5015602;28;20054;-47
2022/07/05 08:35:32;;;;;;;9.30;2.20;;;;;;;21.85;51.94;102334.78;5014345;28;20051;-49
2022/07/05 08:37:58;;;;;;;2.10;1.90;;;;;;;21.27;50.76;102322.38;5015158;28;20046;-45
2022/07/05 08:40:26;;;;;;;2.72;1.73;;;;;;;21.02;54.30;102323.06;5014885;28;20058;-44
2022/07/05 08:42:56;;;;;;;5.55;2.00;;;;;;;22.33;52.52;102323.31;5015571;28;20054;-48
2022/07/05 08:45:27;;;;;;;1.63;1.50;;;;;;;24.06;51.47;102323.09;5013218;28;20112;-47
2022/07/05 08:47:56;;;;;;;4.22;1.90;;;;;;;25.25;45.15;102318.25;5015291;28;20146;-49
2022/07/05 08:50:25;;;;;;;2.85;2.17;;;;;;;25.89;41.60;102323.53;5014687;28;20080;-49
2022/07/05 08:52:52;;;;;;;6.25;2.25;;;;;;;26.25;43.74;102324.16;5014506;28;20060;-48
2022/07/05 08:55:19;;;;;;;4.25;2.08;;;;;;;26.51;37.97;102310.75;5011468;28;20050;-50
2022/07/05 08:57:46;;;;;;;9.23;2.20;;;;;;;25.59;40.99;102310.59;5015247;28;20050;-51
2022/07/05 09:00:12;;;;;;;5.00;1.95;;;;;;;24.66;43.91;102315.31;5014171;28;20525;-47
2022/07/05 09:02:39;;;;;;;4.72;1.80;;;;;;;23.79;45.57;102314.44;5013834;28;20055;-47
2022/07/05 09:05:06;;;;;;;2.75;2.00;;;;;;;23.16;48.71;102316.81;5028129;28;20086;-49
2022/07/05 09:07:36;;;;;;;3.40;2.38;;;;;;;22.82;49.02;102316.69;5015692;28;20145;-47
2022/07/05 09:10:03;;;;;;;2.75;2.00;;;;;;;22.85;49.19;102313.00;5004893;28;20055;-49
2022/07/05 09:12:30;;;;;;;4.95;2.13;;;;;;;22.82;49.56;102324.81;5014455;28;20051;-50
2022/07/05 09:14:57;;;;;;;6.60;2.60;;;;;;;22.83;51.34;102320.13;5012399;28;21008;-47
2022/07/05 09:17:26;;;;;;;4.72;2.05;;;;;;;22.73;49.40;102325.03;5013694;28;20054;-50
2022/07/05 09:20:08;;;;;;;4.22;1.90;;;;;;;22.99;52.10;102327.63;5013318;28;20050;-48
2022/07/05 09:22:54;;;;;;;4.47;2.17;;;;;;;24.58;49.79;102326.72;5014315;28;20050;-49
2022/07/05 09:25:23;;;;;;;4.70;1.95;;;;;;;25.05;45.00;102326.06;5014039;28;20069;-46
2022/07/05 09:27:55;;;;;;;5.40;2.20;;;;;;;24.44;45.94;102329.72;5013049;28;20065;-48
2022/07/05 09:30:30;;;;;;;3.22;1.80;;;;;;;23.61;45.65;102329.25;5013747;28;20059;-46
2022/07/05 09:33:10;;;;;;;5.55;1.80;;;;;;;22.98;49.53;102328.09;5010912;28;20039;-48
2022/07/05 09:35:39;;;;;;;4.90;2.00;;;;;;;23.85;51.21;102328.78;5013205;28;20058;-45
2022/07/05 09:38:15;;;;;;;3.92;1.65;;;;;;;24.34;46.21;102323.09;5013188;28;20054;-49
2022/07/05 09:40:55;;;;;;;2.60;1.50;;;;;;;23.77;46.76;102332.50;5013511;28;20050;-49
2022/07/05 09:43:23;;;;;;;2.60;1.60;;;;;;;23.23;47.00;102330.66;5013224;28;20422;-45
2022/07/05 09:45:51;;;;;;;3.42;1.52;;;;;;;23.63;46.02;102328.03;5013685;28;20149;-46
2022/07/05 09:48:17;;;;;;;5.53;1.70;;;;;;;24.12;45.94;102331.97;5013850;28;20434;-48
2022/07/05 09:51:08;;;;;;;4.63;1.40;;;;;;;25.56;42.51;102327.25;5012541;28;20054;-50
2022/07/05 09:53:57;;;;;;;1.60;1.50;;;;;;;25.04;44.14;102328.06;5012836;28;20042;-50
2022/07/05 09:56:29;;;;;;;5.63;1.88;;;;;;;25.04;43.34;102330.03;5013655;28;20058;-48
2022/07/05 09:59:12;;;;;;;6.00;1.58;;;;;;;25.54;42.07;102327.75;5012685;28;20050;-50
2022/07/05 10:01:38;;;;;;;3.25;1.50;;;;;;;25.19;43.26;102336.63;5013272;28;20062;-47
2022/07/05 10:04:04;;;;;;;3.03;1.42;;;;;;;24.18;42.41;102330.75;5012458;28;20137;-45
2022/07/05 10:06:32;;;;;;;2.63;1.23;;;;;;;23.56;44.16;102332.75;5013389;28;20055;-46
2022/07/05 10:08:59;;;;;;;5.32;1.30;;;;;;;22.81;45.79;102325.31;5013378;28;20050;-47
2022/07/05 10:11:29;;;;;;;8.10;1.60;;;;;;;22.43;46.29;102342.84;5011139;28;20090;-50
2022/07/05 10:13:58;;;;;;;16.10;1.50;;;;;;;22.08;50.86;102348.53;5013431;28;20073;-46
2022/07/05 10:16:25;;;;;;;7.97;1.60;;;;;;;22.58;50.09;102349.63;5012947;28;20061;-50
2022/07/05 10:18:54;;;;;;;6.22;1.42;;;;;;;23.83;49.30;102344.13;5014008;28;20051;-48
2022/07/05 10:21:23;;;;;;;3.83;1.45;;;;;;;25.32;41.68;102341.50;5013103;28;20511;-47
2022/07/05 10:23:53;;;;;;;1.55;1.23;;;;;;;26.13;39.87;102345.38;5012313;28;20050;-45
2022/07/05 10:26:21;;;;;;;3.10;1.25;;;;;;;26.39;38.68;102325.78;5011818;28;20430;-47
2022/07/05 10:28:52;;;;;;;3.08;1.25;;;;;;;25.74;38.86;102328.59;5012181;28;20053;-48
2022/07/05 10:31:28;;;;;;;2.20;1.02;;;;;;;26.46;43.88;102330.66;5011970;28;20046;-49
2022/07/05 10:34:00;;;;;;;2.50;1.27;;;;;;;26.98;42.46;102334.28;5013575;28;20054;-47
2022/07/05 10:36:27;;;;;;;5.35;1.30;;;;;;;25.72;41.95;102329.09;5012831;28;20063;-48
2022/07/05 10:38:54;;;;;;;4.20;1.38;;;;;;;24.66;40.09;102332.41;5013525;28;20061;-48
2022/07/05 10:41:25;;;;;;;6.22;1.80;;;;;;;24.47;47.77;102332.19;5013400;28;20061;-50
2022/07/05 10:43:55;;;;;;;6.57;1.30;;;;;;;24.32;42.07;102331.75;5014620;28;20062;-46
2022/07/05 10:46:33;;;;;;;1.70;1.20;;;;;;;23.72;44.48;102336.69;5014264;28;20145;-50
2022/07/05 10:49:11;;;;;;;3.85;1.30;;;;;;;23.43;44.52;102331.69;5011978;28;20246;-46
2022/07/05 10:51:37;;;;;;;6.82;1.38;;;;;;;23.01;45.22;102333.31;5013395;28;20478;-49
2022/07/05 10:54:04;;;;;;;3.67;1.38;;;;;;;23.72;46.76;102330.50;5012734;28;20082;-48
2022/07/05 10:56:31;;;;;;;3.67;1.20;;;;;;;25.07;43.73;102329.03;5012269;28;20062;-45
2022/07/05 10:59:09;;;;;;;3.08;1.10;;;;;;;26.30;40.46;102333.56;5013876;28;20085;-47
2022/07/05 11:01:40;;;;;;;2.15;1.13;;;;;;;26.71;38.40;102336.09;5011420;28;20070;-50
2022/07/05 11:04:17;;;;;;;;;;;;;;;26.74;40.21;102344.00;5014100;28;20503;-46
2022/07/05 11:06:49;;;;;;;1.42;1.20;;;;;;;25.82;38.83;102335.00;5011868;28;19953;-50
2022/07/05 11:09:17;;;;;;;5.47;1.50;;;;;;;24.75;39.99;102334.84;5013469;28;20057;-46
2022/07/05 11:11:47;;;;;;;5.00;1.30;;;;;;;24.38;42.28;102329.75;5012419;28;20446;-48
2022/07/05 11:14:37;;;;;;;10.25;1.77;;;;;;;24.78;41.30;102333.09;5012979;28;20061;-49
2022/07/05 11:17:13;;;;;;;3.38;1.30;;;;;;;24.21;43.93;102337.91;5012182;28;20066;-49
2022/07/05 11:20:04;;;;;;;7.25;1.67;;;;;;;23.59;46.11;102337.16;5012388;28;20062;-46
2022/07/05 11:22:30;;;;;;;5.47;1.20;;;;;;;23.41;47.12;102343.06;5011246;28;20050;-46
2022/07/05 11:24:58;;;;;;;6.65;1.45;;;;;;;24.06;46.25;102339.41;5006931;28;21133;-50
2022/07/05 11:27:24;;;;;;;19.95;1.92;;;;;;;24.36;42.16;102334.22;5012034;28;20055;-46
2022/07/05 11:29:52;;;;;;;4.63;1.30;;;;;;;24.76;47.02;102332.84;5011087;28;20053;-48
2022/07/05 11:32:34;;;;;;;2.35;1.10;;;;;;;25.46;40.60;102329.53;5013143;28;20054;-45
2022/07/05 11:35:19;;;;;;;3.55;1.17;;;;;;;24.59;44.56;102341.06;5011997;28;20077;-48
2022/07/05 11:38:09;;;;;;;5.55;1.48;;;;;;;24.65;42.95;102336.34;5012913;28;20186;-47